Time;durP1;ratioP1;P1;durP2;ratioP2;P2;SDS_P1;SDS_P2;PMS_P1;PMS_P2;Temp;Humidity;BMP_temperature;BMP_pressure;BME280_temperature;BME280_humidity;BME280_pressure;Samples;Min_cycle;Max_cycle;Signal;HPM_P1;HPM_P2
2022/05/07 00:00:22;;;;;;;52.45;36.92;;;13.10;99.90;;;;;;5066412;28;20079;-75
2022/05/07 00:02:48;;;;;;;50.90;36.33;;;13.10;99.90;;;;;;5049243;28;20044;-76
2022/05/07 00:05:14;;;;;;;48.25;34.88;;;13.10;99.90;;;;;;5055044;28;20052;-76
2022/05/07 00:07:39;;;;;;;51.90;35.33;;;13.10;99.90;;;;;;5067237;28;20133;-76
2022/05/07 00:10:06;;;;;;;54.58;39.20;;;13.10;99.90;;;;;;5067684;28;20081;-76
2022/05/07 00:12:31;;;;;;;52.42;35.47;;;13.00;99.90;;;;;;5069031;28;20045;-76
2022/05/07 00:14:57;;;;;;;52.97;37.20;;;13.10;99.90;;;;;;5060491;28;20040;-76
2022/05/07 00:20:07;;;;;;;48.40;35.25;;;13.10;99.90;;;;;;5068035;28;20048;-77
2022/05/07 00:22:33;;;;;;;53.95;37.72;;;13.00;99.90;;;;;;5067737;28;20037;-77
2022/05/07 00:24:58;;;;;;;47.78;34.42;;;13.10;99.90;;;;;;5065483;28;20048;-76
2022/05/07 00:27:24;;;;;;;51.40;39.08;;;12.90;99.90;;;;;;5055401;28;20642;-76
2022/05/07 00:29:50;;;;;;;46.63;36.35;;;12.80;99.90;;;;;;5049516;28;20048;-76
2022/05/07 00:32:15;;;;;;;56.08;39.83;;;12.80;99.90;;;;;;5049138;28;20045;-76
2022/05/07 00:34:41;;;;;;;48.40;34.83;;;12.90;99.90;;;;;;5047703;28;20091;-77
2022/05/07 00:37:06;;;;;;;55.00;40.58;;;12.90;99.90;;;;;;5056138;28;20040;-76
2022/05/07 00:39:32;;;;;;;45.85;35.75;;;12.90;99.90;;;;;;5062297;28;20037;-75
2022/05/07 00:42:05;;;;;;;47.08;37.08;;;12.80;99.90;;;;;;5046890;28;20080;-76
2022/05/07 00:44:32;;;;;;;48.47;34.63;;;12.70;99.90;;;;;;5063917;28;20033;-76
2022/05/07 00:47:31;;;;;;;54.17;36.28;;;12.70;99.90;;;;;;5066077;28;20105;-77
2022/05/07 00:51:33;;;;;;;46.20;35.53;;;12.70;99.90;;;;;;5064428;28;20131;-76
2022/05/07 00:52:45;;;;;;;52.28;36.67;;;12.70;99.90;;;;;;5077220;28;20063;-76
2022/05/07 00:55:12;;;;;;;49.80;37.50;;;12.70;99.90;;;;;;5068874;28;20051;-76
2022/05/07 00:57:38;;;;;;;58.22;40.78;;;12.70;99.90;;;;;;5040155;28;20495;-76
2022/05/07 01:00:05;;;;;;;50.72;38.15;;;12.50;99.90;;;;;;5048611;28;20048;-75
2022/05/07 01:02:30;;;;;;;44.88;36.15;;;12.50;99.90;;;;;;5067456;28;20137;-74
2022/05/07 01:04:57;;;;;;;50.20;37.15;;;12.50;99.90;;;;;;5065198;28;20044;-76
2022/05/07 01:07:22;;;;;;;56.03;37.70;;;12.40;99.90;;;;;;5053283;28;20593;-77
2022/05/07 01:09:48;;;;;;;46.47;37.45;;;12.40;99.90;;;;;;5052004;28;20097;-76
2022/05/07 01:12:14;;;;;;;46.97;37.05;;;12.40;99.90;;;;;;5061744;28;20455;-74
2022/05/07 01:14:40;;;;;;;44.70;35.33;;;12.40;99.90;;;;;;5065611;28;20048;-75
2022/05/07 01:17:07;;;;;;;51.40;38.33;;;12.50;99.90;;;;;;5082393;28;20093;-76
2022/05/07 01:19:32;;;;;;;51.25;37.33;;;12.60;99.90;;;;;;5067435;28;20036;-75
2022/05/07 01:21:58;;;;;;;50.00;36.05;;;12.50;99.90;;;;;;5063348;28;20036;-76
2022/05/07 01:24:23;;;;;;;47.90;35.90;;;12.50;99.90;;;;;;5067818;28;20049;-76
2022/05/07 01:26:49;;;;;;;48.08;35.97;;;12.50;99.90;;;;;;5062392;28;20033;-75
2022/05/07 01:29:14;;;;;;;40.63;34.13;;;12.40;99.90;;;;;;5067162;28;20048;-75
2022/05/07 01:31:41;;;;;;;43.83;35.58;;;12.50;99.90;;;;;;5067166;28;20560;-76
2022/05/07 01:34:06;;;;;;;45.53;35.60;;;12.50;99.90;;;;;;5057119;28;20048;-75
2022/05/07 01:36:32;;;;;;;45.33;34.20;;;12.50;99.90;;;;;;5030772;28;20063;-75
2022/05/07 01:39:04;;;;;;;49.58;38.42;;;12.60;99.90;;;;;;5038784;28;20723;-75
2022/05/07 01:41:30;;;;;;;46.13;35.17;;;12.60;99.90;;;;;;5055687;28;20128;-76
2022/05/07 01:43:55;;;;;;;43.88;34.03;;;12.60;99.90;;;;;;5060454;28;20119;-76
2022/05/07 01:49:05;;;;;;;49.80;36.90;;;12.70;99.90;;;;;;5057327;28;20052;-75
2022/05/07 01:51:31;;;;;;;44.50;35.85;;;12.60;99.90;;;;;;5050195;28;20039;-75
2022/05/07 01:53:57;;;;;;;45.20;34.78;;;12.60;99.90;;;;;;5063711;28;20470;-75
2022/05/07 01:56:22;;;;;;;45.22;35.05;;;12.60;99.90;;;;;;5048986;28;20048;-74
2022/05/07 01:58:49;;;;;;;40.67;33.10;;;12.60;99.90;;;;;;5064040;28;20056;-76
2022/05/07 02:01:15;;;;;;;40.15;34.45;;;12.60;99.90;;;;;;5066190;28;20037;-76
2022/05/07 02:03:40;;;;;;;44.10;33.53;;;12.50;99.90;;;;;;5066466;28;20048;-75
2022/05/07 02:06:06;;;;;;;40.22;34.90;;;12.50;99.90;;;;;;5066800;28;20037;-75
2022/05/07 02:08:32;;;;;;;62.15;36.33;;;12.50;99.90;;;;;;5048587;28;20053;-75
2022/05/07 02:11:00;;;;;;;43.13;36.13;;;12.50;99.90;;;;;;5051633;28;20040;-75
2022/05/07 02:13:26;;;;;;;41.53;34.00;;;12.60;99.90;;;;;;5064433;28;20502;-75
2022/05/07 02:15:52;;;;;;;39.45;30.70;;;12.50;99.90;;;;;;5064689;28;20041;-75
2022/05/07 02:18:17;;;;;;;38.25;32.25;;;12.40;99.90;;;;;;5063864;28;20053;-75
2022/05/07 02:20:43;;;;;;;39.70;32.85;;;12.50;99.90;;;;;;5064512;28;20044;-75
2022/05/07 02:23:09;;;;;;;42.63;32.83;;;12.50;99.90;;;;;;5053967;28;20079;-74
2022/05/07 02:25:34;;;;;;;39.78;31.83;;;12.40;99.90;;;;;;5054469;28;20045;-74
2022/05/07 02:28:00;;;;;;;33.40;29.80;;;12.50;99.90;;;;;;5059308;28;20048;-75
2022/05/07 02:30:25;;;;;;;37.22;30.92;;;12.50;99.90;;;;;;5066382;28;20127;-74
2022/05/07 02:32:51;;;;;;;35.90;30.13;;;12.40;99.90;;;;;;5055867;28;20045;-74
2022/05/07 02:35:16;;;;;;;31.10;27.80;;;12.40;99.90;;;;;;5044881;28;20039;-74
2022/05/07 02:37:42;;;;;;;35.55;29.17;;;12.40;99.90;;;;;;5053297;28;20067;-74
2022/05/07 02:40:08;;;;;;;33.60;29.05;;;12.40;99.90;;;;;;5061816;28;20041;-74
2022/05/07 02:42:36;;;;;;;36.58;32.25;;;12.40;99.90;;;;;;5059695;28;20041;-74
2022/05/07 02:45:09;;;;;;;33.65;29.00;;;12.30;99.90;;;;;;5064503;28;20053;-74
2022/05/07 02:47:36;;;;;;;42.88;28.77;;;12.30;99.90;;;;;;5053863;28;20036;-74
2022/05/07 02:50:07;;;;;;;37.47;30.65;;;12.30;99.90;;;;;;5063592;28;20059;-75
2022/05/07 02:52:33;;;;;;;;;;;12.30;99.90;;;;;;5066765;28;20032;-74
2022/05/07 02:55:07;;;;;;;35.28;29.80;;;12.20;99.90;;;;;;5062973;28;19928;-73
2022/05/07 02:57:33;;;;;;;33.50;28.70;;;12.20;99.90;;;;;;5049204;28;20033;-74
2022/05/07 02:59:58;;;;;;;43.03;29.25;;;12.10;99.90;;;;;;5057234;28;20415;-74
2022/05/07 03:02:24;;;;;;;34.58;29.23;;;12.10;99.90;;;;;;5064975;28;20128;-74
2022/05/07 03:04:51;;;;;;;35.30;31.05;;;12.20;99.90;;;;;;5034704;28;20036;-74
2022/05/07 03:07:16;;;;;;;35.15;29.35;;;12.10;99.90;;;;;;5063131;28;20056;-74
2022/05/07 03:09:42;;;;;;;31.95;28.08;;;12.10;99.90;;;;;;5056289;28;20061;-74
2022/05/07 03:12:11;;;;;;;34.03;28.77;;;12.10;99.90;;;;;;5065556;28;20040;-76
2022/05/07 03:14:37;;;;;;;37.03;31.13;;;12.10;99.90;;;;;;5061911;28;20072;-74
2022/05/07 03:17:03;;;;;;;34.50;30.77;;;12.10;99.90;;;;;;5065882;28;20083;-75
2022/05/07 03:19:29;;;;;;;34.38;29.63;;;12.10;99.90;;;;;;5060614;28;20482;-75
2022/05/07 03:21:55;;;;;;;31.35;28.00;;;12.10;99.90;;;;;;5062626;28;20078;-75
2022/05/07 03:24:21;;;;;;;37.75;28.83;;;12.10;99.90;;;;;;5063348;28;20043;-76
2022/05/07 03:26:46;;;;;;;33.95;29.02;;;12.20;99.90;;;;;;5064704;28;20047;-75
2022/05/07 03:29:12;;;;;;;34.63;30.02;;;12.10;99.90;;;;;;5067514;28;20084;-75
2022/05/07 03:31:39;;;;;;;39.75;30.63;;;12.10;99.90;;;;;;5069635;28;20032;-74
2022/05/07 03:34:05;;;;;;;35.47;31.27;;;12.10;99.90;;;;;;5055764;28;20384;-75
2022/05/07 03:36:31;;;;;;;33.95;28.23;;;12.10;99.90;;;;;;5048374;28;20060;-76
2022/05/07 03:38:57;;;;;;;33.63;29.63;;;12.10;99.90;;;;;;5053315;28;20454;-75
2022/05/07 03:41:22;;;;;;;31.90;28.50;;;12.10;99.90;;;;;;5070281;28;20032;-75
2022/05/07 03:43:48;;;;;;;35.95;29.50;;;12.10;99.90;;;;;;5068681;28;20072;-75
2022/05/07 03:46:13;;;;;;;38.47;30.75;;;12.00;99.90;;;;;;5049269;28;20032;-76
2022/05/07 03:48:39;;;;;;;37.42;31.48;;;12.00;99.90;;;;;;5055572;28;20041;-76
2022/05/07 03:51:05;;;;;;;34.70;30.80;;;12.10;99.90;;;;;;5062797;28;20487;-76
2022/05/07 03:53:31;;;;;;;36.65;31.20;;;12.10;99.90;;;;;;5059143;28;20036;-76
2022/05/07 03:56:04;;;;;;;34.95;29.25;;;12.00;99.90;;;;;;5048664;28;20037;-76
2022/05/07 03:58:30;;;;;;;33.40;26.98;;;12.10;99.90;;;;;;5048799;28;20040;-75
2022/05/07 04:00:57;;;;;;;35.42;29.60;;;12.10;99.90;;;;;;5064413;28;20071;-77
2022/05/07 04:03:24;;;;;;;33.25;28.20;;;12.10;99.90;;;;;;5065800;28;20136;-75
2022/05/07 04:05:51;;;;;;;34.65;29.17;;;12.00;99.90;;;;;;5066482;28;20071;-75
2022/05/07 04:08:17;;;;;;;31.25;27.70;;;12.10;99.90;;;;;;5066916;28;20062;-76
2022/05/07 04:10:43;;;;;;;33.72;28.95;;;12.10;99.90;;;;;;5064796;28;20044;-74
2022/05/07 04:13:10;;;;;;;32.67;27.75;;;12.00;99.90;;;;;;5063416;28;20044;-75
2022/05/07 04:15:36;;;;;;;30.27;26.98;;;11.90;99.90;;;;;;5051021;28;20135;-76
2022/05/07 04:18:03;;;;;;;32.97;28.65;;;12.00;99.90;;;;;;5048404;28;20052;-75
2022/05/07 04:20:28;;;;;;;35.95;28.98;;;12.00;99.90;;;;;;5058030;28;20044;-76
2022/05/07 04:22:54;;;;;;;36.50;29.20;;;12.00;99.90;;;;;;5051396;28;20060;-75
2022/05/07 04:25:20;;;;;;;32.85;29.38;;;11.90;99.90;;;;;;5058391;28;20752;-75
2022/05/07 04:27:45;;;;;;;32.72;29.17;;;11.90;99.90;;;;;;5069909;28;20119;-75
2022/05/07 04:30:11;;;;;;;34.78;31.10;;;12.00;99.90;;;;;;5064349;28;20051;-73
2022/05/07 04:32:37;;;;;;;34.75;30.10;;;12.00;99.90;;;;;;5054969;28;20052;-75
2022/05/07 04:35:03;;;;;;;31.92;28.50;;;12.00;99.90;;;;;;5047355;28;20064;-73
2022/05/07 04:37:28;;;;;;;31.33;27.98;;;12.10;99.90;;;;;;5047923;28;20662;-74
2022/05/07 04:39:54;;;;;;;30.33;27.10;;;12.10;99.90;;;;;;5056880;28;20037;-75
2022/05/07 04:42:19;;;;;;;31.38;27.73;;;12.20;99.90;;;;;;5047176;28;20079;-76
2022/05/07 04:44:45;;;;;;;32.10;27.15;;;12.00;99.90;;;;;;5061818;28;20661;-77
2022/05/07 04:47:10;;;;;;;32.30;28.80;;;12.00;99.90;;;;;;5068123;28;20398;-76
2022/05/07 04:49:36;;;;;;;31.92;28.50;;;11.90;99.90;;;;;;5057328;28;20414;-74
2022/05/07 04:52:07;;;;;;;32.25;28.50;;;12.00;99.90;;;;;;5063534;28;20406;-76
2022/05/07 04:54:33;;;;;;;32.85;29.02;;;11.90;99.90;;;;;;5051885;28;20051;-76
2022/05/07 04:56:59;;;;;;;34.78;31.02;;;12.00;99.90;;;;;;5060091;28;20048;-75
2022/05/07 04:59:24;;;;;;;36.15;31.33;;;12.10;99.90;;;;;;5078857;28;20053;-76
2022/05/07 05:01:50;;;;;;;33.67;30.13;;;12.20;99.90;;;;;;5056839;28;20053;-76
2022/05/07 05:04:16;;;;;;;44.70;30.70;;;12.20;99.90;;;;;;5064985;28;20067;-76
2022/05/07 05:06:42;;;;;;;36.35;30.83;;;12.20;99.90;;;;;;5047073;28;20045;-76
2022/05/07 05:09:09;;;;;;;35.28;28.63;;;12.10;99.90;;;;;;5063469;28;20056;-76
2022/05/07 05:11:35;;;;;;;34.47;30.77;;;12.10;99.90;;;;;;5049335;28;20537;-77
2022/05/07 05:14:00;;;;;;;37.72;31.90;;;12.10;99.90;;;;;;5047912;28;20057;-79
2022/05/07 05:16:27;;;;;;;35.00;31.33;;;12.10;99.90;;;;;;5055512;28;20045;-79
2022/05/07 05:18:53;;;;;;;33.00;28.20;;;12.20;99.90;;;;;;5058392;28;20133;-80
2022/05/07 05:21:19;;;;;;;37.35;31.02;;;12.20;99.90;;;;;;5049500;28;20511;-79
2022/05/07 05:23:48;;;;;;;35.45;30.17;;;12.10;99.90;;;;;;5065793;28;20044;-78
2022/05/07 05:26:14;;;;;;;34.47;30.85;;;12.20;99.90;;;;;;5061304;28;20085;-78
2022/05/07 05:28:40;;;;;;;33.13;29.48;;;12.20;99.90;;;;;;5049275;28;20159;-79
2022/05/07 05:31:06;;;;;;;35.80;30.25;;;12.20;99.90;;;;;;5050769;28;20067;-80
2022/05/07 05:33:32;;;;;;;32.17;28.95;;;12.30;99.90;;;;;;5052032;28;21753;-77
2022/05/07 05:35:57;;;;;;;33.47;29.30;;;12.30;99.90;;;;;;5048306;28;20052;-77
2022/05/07 05:38:24;;;;;;;36.20;29.95;;;12.30;99.90;;;;;;5049162;28;20380;-77
2022/05/07 05:40:50;;;;;;;32.22;28.80;;;12.30;99.90;;;;;;5058725;28;20044;-78
2022/05/07 05:43:17;;;;;;;34.88;29.23;;;12.40;99.90;;;;;;5053617;28;20044;-81
2022/05/07 05:45:43;;;;;;;35.40;30.90;;;12.50;99.90;;;;;;5047519;28;20084;-78
2022/05/07 05:48:09;;;;;;;36.40;28.98;;;12.40;99.90;;;;;;5058652;28;20095;-79
2022/05/07 05:50:35;;;;;;;31.92;28.55;;;12.50;99.90;;;;;;5058234;28;20572;-79
2022/05/07 05:53:00;;;;;;;38.25;29.92;;;12.30;99.90;;;;;;5063271;28;20052;-78
2022/05/07 05:55:26;;;;;;;33.83;29.08;;;12.40;99.90;;;;;;5060388;28;20398;-81
2022/05/07 05:57:52;;;;;;;37.92;30.17;;;12.40;99.90;;;;;;5048263;28;20076;-80
2022/05/07 06:00:18;;;;;;;31.70;28.30;;;12.50;99.90;;;;;;5060660;28;20048;-79
2022/05/07 06:02:44;;;;;;;33.17;29.67;;;12.50;99.90;;;;;;5064584;28;20085;-77
2022/05/07 06:05:11;;;;;;;36.05;29.23;;;12.60;99.90;;;;;;5054967;28;20124;-77
2022/05/07 06:07:36;;;;;;;33.83;29.05;;;12.70;99.90;;;;;;5074175;28;20195;-76
2022/05/07 06:10:03;;;;;;;34.22;28.95;;;12.60;99.90;;;;;;5055466;28;20565;-77
2022/05/07 06:12:30;;;;;;;38.78;30.13;;;12.70;99.90;;;;;;5058200;28;20076;-78
2022/05/07 06:14:56;;;;;;;31.67;28.25;;;12.80;99.90;;;;;;5064504;28;20087;-80
2022/05/07 06:17:22;;;;;;;34.25;27.13;;;12.90;99.90;;;;;;5054204;28;20044;-77
2022/05/07 06:19:48;;;;;;;32.00;27.75;;;13.10;99.90;;;;;;5054162;28;20041;-78
2022/05/07 06:22:14;;;;;;;39.65;28.67;;;13.20;99.90;;;;;;5058076;28;20051;-79
2022/05/07 06:27:31;;;;;;;29.65;26.73;;;13.50;99.90;;;;;;5064935;28;20056;-78
2022/05/07 06:29:57;;;;;;;31.77;27.90;;;13.50;99.90;;;;;;5059900;28;20041;-79
2022/05/07 06:32:24;;;;;;;33.88;27.92;;;13.50;99.90;;;;;;5049574;28;20580;-77
2022/05/07 06:34:49;;;;;;;31.92;26.27;;;13.60;99.90;;;;;;5057995;28;20032;-76
2022/05/07 06:37:15;;;;;;;30.63;27.20;;;13.70;99.90;;;;;;5057981;28;20059;-77
2022/05/07 06:39:41;;;;;;;30.05;25.77;;;13.80;99.90;;;;;;5052864;28;20032;-77
2022/05/07 06:42:07;;;;;;;30.58;27.50;;;14.00;99.90;;;;;;5067462;28;20072;-77
2022/05/07 06:44:33;;;;;;;30.67;26.83;;;14.10;99.90;;;;;;5048711;28;20041;-76
2022/05/07 06:46:58;;;;;;;31.50;28.02;;;14.20;99.90;;;;;;5052223;28;20050;-77
2022/05/07 06:49:24;;;;;;;36.15;27.25;;;14.50;99.90;;;;;;5058792;28;20036;-75
2022/05/07 06:51:50;;;;;;;32.92;27.67;;;14.60;99.90;;;;;;5047361;28;20094;-76
2022/05/07 06:54:17;;;;;;;31.60;26.60;;;14.60;99.90;;;;;;5065051;28;20059;-87
2022/05/07 06:56:42;;;;;;;30.30;25.95;;;14.70;99.90;;;;;;5057566;28;20521;-77
2022/05/07 06:59:09;;;;;;;29.20;25.73;;;15.00;99.90;;;;;;5054639;28;20045;-79
2022/05/07 07:01:36;;;;;;;29.15;25.80;;;15.40;99.90;;;;;;5048938;28;20049;-79
2022/05/07 07:04:01;;;;;;;30.52;27.27;;;16.00;99.90;;;;;;5058104;28;20088;-77
2022/05/07 07:06:27;;;;;;;28.48;25.40;;;16.30;99.90;;;;;;5070335;28;20401;-77
2022/05/07 07:08:53;;;;;;;31.38;28.25;;;16.40;99.90;;;;;;5053187;28;20052;-80
2022/05/07 07:11:20;;;;;;;29.42;26.42;;;15.90;99.90;;;;;;5056547;28;20040;-80
2022/05/07 07:13:46;;;;;;;30.52;26.75;;;16.00;99.90;;;;;;5067883;28;20087;-80
2022/05/07 07:16:12;;;;;;;31.00;27.20;;;15.90;99.90;;;;;;5066075;28;20068;-80
2022/05/07 07:18:38;;;;;;;31.67;27.58;;;16.10;99.90;;;;;;5045521;28;20068;-76
2022/05/07 07:21:03;;;;;;;29.50;26.20;;;16.10;99.90;;;;;;5051739;28;20045;-75
2022/05/07 07:23:29;;;;;;;30.67;27.42;;;15.80;99.90;;;;;;5053063;28;20143;-77
2022/05/07 07:25:54;;;;;;;28.23;25.27;;;15.50;99.90;;;;;;5047620;28;20032;-78
2022/05/07 07:28:20;;;;;;;31.05;26.40;;;15.30;99.90;;;;;;5068328;28;20049;-77
2022/05/07 07:30:45;;;;;;;30.75;27.67;;;15.40;99.90;;;;;;5064634;28;20036;-78
2022/05/07 07:33:13;;;;;;;30.08;26.15;;;15.20;99.90;;;;;;5066516;28;20055;-78
2022/05/07 07:35:39;;;;;;;30.92;27.67;;;15.50;99.90;;;;;;5045182;28;20075;-77
2022/05/07 07:38:05;;;;;;;29.73;26.35;;;15.60;99.90;;;;;;5065385;28;20075;-79
2022/05/07 07:40:31;;;;;;;35.35;28.60;;;15.60;99.90;;;;;;5064364;28;20085;-79
2022/05/07 07:42:57;;;;;;;33.00;28.27;;;15.40;99.90;;;;;;5043537;28;20044;-79
2022/05/07 07:48:08;;;;;;;34.22;28.33;;;15.50;99.90;;;;;;5059151;28;20044;-78
2022/05/07 07:50:35;;;;;;;33.35;29.75;;;15.50;99.90;;;;;;5031760;28;20040;-76
2022/05/07 07:53:03;;;;;;;35.90;30.15;;;15.70;99.90;;;;;;5059930;28;20041;-79
2022/05/07 07:55:30;;;;;;;32.80;28.80;;;15.50;99.90;;;;;;5051593;28;20357;-77
2022/05/07 07:58:00;;;;;;;33.25;29.00;;;15.50;99.90;;;;;;5062443;28;20045;-77
2022/05/07 08:00:27;;;;;;;35.55;26.92;;;15.60;99.90;;;;;;5064378;28;20043;-78
2022/05/07 08:02:55;;;;;;;31.48;28.02;;;15.50;99.90;;;;;;5066843;28;20048;-77
2022/05/07 08:05:26;;;;;;;36.13;27.33;;;15.30;99.90;;;;;;5053454;28;20040;-76
2022/05/07 08:13:21;;;;;;;36.42;30.02;;;15.50;99.90;;;;;;5063823;28;20048;-77
2022/05/07 08:15:47;;;;;;;38.78;33.60;;;15.50;99.90;;;;;;5062090;28;20051;-77
2022/05/07 08:18:13;;;;;;;37.03;31.58;;;15.40;99.90;;;;;;5065058;28;20509;-77
2022/05/07 08:20:41;;;;;;;41.20;31.90;;;15.50;99.90;;;;;;5066241;28;20130;-75
2022/05/07 08:23:07;;;;;;;46.90;34.85;;;15.40;99.90;;;;;;5060310;28;20049;-77
2022/05/07 08:25:33;;;;;;;42.33;33.92;;;15.60;99.90;;;;;;5067036;28;20040;-77
2022/05/07 08:27:59;;;;;;;40.50;34.00;;;15.60;99.90;;;;;;5069057;28;20044;-81
2022/05/07 08:30:24;;;;;;;46.35;35.75;;;15.70;99.90;;;;;;5057895;28;20048;-80
2022/05/07 08:32:51;;;;;;;49.17;36.13;;;15.90;99.90;;;;;;5064034;28;20183;-80
2022/05/07 08:35:17;;;;;;;44.22;36.08;;;15.90;99.90;;;;;;5064646;28;20410;-77
2022/05/07 08:37:43;;;;;;;42.70;34.92;;;15.80;99.90;;;;;;5050637;28;20040;-78
2022/05/07 08:40:09;;;;;;;51.65;36.78;;;15.80;99.90;;;;;;5040152;28;20475;-77
2022/05/07 08:42:37;;;;;;;45.70;36.03;;;16.00;99.90;;;;;;5059512;28;20656;-77
2022/05/07 08:45:04;;;;;;;50.85;37.38;;;15.90;99.90;;;;;;5068157;28;20044;-75
2022/05/07 08:47:29;;;;;;;46.03;35.97;;;15.90;99.90;;;;;;5066116;28;20514;-78
2022/05/07 08:49:57;;;;;;;50.10;35.05;;;16.10;99.90;;;;;;5061865;28;20079;-78
2022/05/07 08:52:23;;;;;;;46.17;35.17;;;16.10;99.90;;;;;;5067700;28;20052;-78
2022/05/07 08:54:49;;;;;;;52.42;36.72;;;16.30;99.90;;;;;;5057702;28;20376;-78
2022/05/07 08:57:16;;;;;;;44.65;35.00;;;16.30;99.90;;;;;;5064845;28;20047;-78
2022/05/07 08:59:43;;;;;;;47.33;36.83;;;16.40;99.90;;;;;;5066744;28;20041;-79
2022/05/07 09:02:09;;;;;;;51.90;36.83;;;16.50;99.90;;;;;;5064695;28;20060;-79
2022/05/07 09:04:37;;;;;;;44.22;35.08;;;16.60;99.90;;;;;;5063710;28;20105;-79
2022/05/07 09:07:04;;;;;;;46.35;34.97;;;16.60;99.90;;;;;;5065573;28;20060;-77
2022/05/07 09:09:33;;;;;;;50.08;37.63;;;16.60;99.90;;;;;;5066759;28;20048;-78
2022/05/07 09:11:58;;;;;;;52.42;38.72;;;16.40;99.90;;;;;;5062668;28;20128;-78
2022/05/07 09:14:31;;;;;;;55.03;42.60;;;16.50;99.90;;;;;;5059669;28;20558;-79
2022/05/07 09:17:00;;;;;;;58.67;41.55;;;16.40;99.90;;;;;;5064573;28;20379;-77
2022/05/07 09:19:27;;;;;;;57.90;43.85;;;16.40;99.90;;;;;;5061748;28;20068;-78
2022/05/07 09:22:06;;;;;;;56.40;40.80;;;16.30;99.90;;;;;;5068132;28;20075;-80
2022/05/07 09:24:32;;;;;;;54.83;41.63;;;16.30;99.90;;;;;;5058114;28;20048;-80
2022/05/07 09:26:58;;;;;;;52.20;39.95;;;16.40;99.90;;;;;;5062372;28;20040;-79
2022/05/07 09:29:27;;;;;;;48.03;36.92;;;16.50;99.90;;;;;;5065097;28;20048;-79
2022/05/07 09:31:53;;;;;;;50.47;37.03;;;16.80;99.90;;;;;;5043960;28;20508;-78
2022/05/07 09:37:17;;;;;;;45.83;33.83;;;16.70;99.90;;;;;;5066604;28;20044;-79
2022/05/07 09:39:47;;;;;;;45.78;33.42;;;16.50;99.90;;;;;;5066776;28;20052;-79
2022/05/07 09:42:16;;;;;;;46.72;34.20;;;16.60;99.90;;;;;;5067530;28;20155;-78
2022/05/07 09:44:43;;;;;;;54.35;38.17;;;16.50;99.90;;;;;;5062582;28;20781;-78
2022/05/07 09:47:12;;;;;;;46.88;35.38;;;16.40;99.90;;;;;;5063717;28;20037;-79
2022/05/07 09:50:20;;;;;;;54.33;40.90;;;16.30;99.90;;;;;;5047630;28;20055;-75
2022/05/07 09:52:28;;;;;;;48.80;36.10;;;16.20;99.90;;;;;;5051527;28;20131;-79
2022/05/07 09:57:39;;;;;;;47.42;34.55;;;16.30;99.90;;;;;;5066395;28;20319;-77
2022/05/07 10:00:07;;;;;;;40.78;33.25;;;16.50;99.90;;;;;;5065645;28;20051;-77
2022/05/07 10:02:36;;;;;;;39.80;28.73;;;16.50;99.90;;;;;;5066721;28;20055;-78
2022/05/07 10:05:11;;;;;;;40.40;32.55;;;16.50;99.90;;;;;;5066476;28;20051;-78
2022/05/07 10:08:20;;;;;;;44.92;30.27;;;16.60;99.90;;;;;;5065924;28;20056;-79
2022/05/07 10:10:48;;;;;;;40.97;31.65;;;16.80;99.90;;;;;;5051750;28;20101;-79
2022/05/07 10:13:17;;;;;;;41.25;29.10;;;16.70;99.90;;;;;;5066103;28;20059;-78
2022/05/07 10:15:57;;;;;;;39.65;28.80;;;16.80;99.90;;;;;;5045952;28;20099;-78
2022/05/07 10:18:41;;;;;;;44.40;33.15;;;16.80;99.90;;;;;;5066159;28;20041;-78
2022/05/07 10:21:15;;;;;;;42.08;32.33;;;16.80;99.90;;;;;;5066330;28;20047;-80
2022/05/07 10:23:52;;;;;;;31.88;27.40;;;17.00;99.90;;;;;;5046678;28;20056;-78
2022/05/07 10:26:19;;;;;;;40.70;29.30;;;17.20;99.90;;;;;;5050253;28;20104;-77
2022/05/07 10:28:45;;;;;;;40.08;28.40;;;17.10;99.90;;;;;;5051185;28;20068;-79
2022/05/07 10:31:23;;;;;;;36.00;28.80;;;16.90;99.90;;;;;;5066158;28;20083;-79
2022/05/07 10:33:51;;;;;;;37.22;27.20;;;16.70;99.90;;;;;;5065113;28;20462;-78
2022/05/07 10:36:17;;;;;;;40.20;31.00;;;16.70;99.90;;;;;;5066740;28;20041;-78
2022/05/07 10:38:44;;;;;;;56.28;39.65;;;16.80;99.90;;;;;;5070814;28;20043;-78
2022/05/07 10:41:12;;;;;;;64.15;42.70;;;16.80;99.90;;;;;;5070118;28;20098;-77
2022/05/07 10:43:43;;;;;;;61.35;43.28;;;16.60;99.90;;;;;;5071068;28;20095;-77
2022/05/07 10:46:11;;;;;;;63.17;44.10;;;16.50;99.90;;;;;;5068269;28;20040;-77
2022/05/07 10:48:59;;;;;;;73.65;49.42;;;16.60;99.90;;;;;;5059795;28;20052;-77
2022/05/07 10:51:37;;;;;;;60.88;42.67;;;16.40;99.90;;;;;;5056801;28;20398;-77
2022/05/07 10:54:23;;;;;;;52.75;41.00;;;16.30;99.90;;;;;;5070766;28;20546;-77
2022/05/07 10:56:52;;;;;;;49.95;39.88;;;16.30;99.90;;;;;;5061435;28;20041;-79
2022/05/07 10:59:18;;;;;;;49.20;37.22;;;16.40;99.90;;;;;;5053218;28;20479;-78
2022/05/07 11:01:44;;;;;;;43.90;34.55;;;16.30;99.90;;;;;;5067827;28;20382;-79
2022/05/07 11:04:13;;;;;;;46.05;34.05;;;16.30;99.90;;;;;;5069245;28;20044;-78
2022/05/07 11:06:51;;;;;;;45.10;32.77;;;16.10;99.90;;;;;;5070195;28;20489;-77
2022/05/07 11:09:24;;;;;;;38.95;27.40;;;16.30;99.90;;;;;;5068828;28;20040;-79
2022/05/07 11:11:55;;;;;;;36.10;26.00;;;16.20;99.90;;;;;;5070249;28;20040;-78
2022/05/07 11:14:32;;;;;;;33.85;24.90;;;16.40;99.90;;;;;;5066508;28;20048;-78
2022/05/07 11:17:00;;;;;;;36.28;25.60;;;16.20;99.90;;;;;;5058136;28;20411;-79
2022/05/07 11:19:27;;;;;;;28.30;23.08;;;16.40;99.90;;;;;;5049594;28;20098;-79
2022/05/07 11:21:54;;;;;;;31.30;24.45;;;16.30;99.90;;;;;;5052724;28;20044;-79
2022/05/07 11:24:21;;;;;;;33.45;23.13;;;16.50;99.90;;;;;;5069014;28;20075;-79
2022/05/07 11:26:51;;;;;;;26.55;22.35;;;16.70;99.90;;;;;;5069125;28;20044;-80
2022/05/07 11:29:17;;;;;;;29.45;22.02;;;17.10;99.90;;;;;;5068244;28;20044;-78
2022/05/07 11:31:43;;;;;;;27.65;22.13;;;17.20;99.90;;;;;;5069411;28;20483;-79
2022/05/07 11:34:12;;;;;;;28.00;19.42;;;17.00;99.90;;;;;;5067035;28;20055;-81
2022/05/07 11:36:38;;;;;;;25.17;19.52;;;17.00;99.90;;;;;;5069705;28;20037;-77
2022/05/07 11:39:08;;;;;;;29.15;20.33;;;16.90;99.90;;;;;;5067216;28;20414;-78
2022/05/07 11:41:35;;;;;;;18.67;14.93;;;16.80;99.90;;;;;;5070218;28;20048;-78
2022/05/07 11:46:50;;;;;;;14.90;10.70;;;16.80;99.90;;;;;;5049423;28;20501;-78
2022/05/07 11:49:26;;;;;;;;;;;16.70;99.90;;;;;;5051190;28;20044;-79
2022/05/07 11:52:11;;;;;;;17.23;11.35;;;16.50;99.90;;;;;;5049686;28;19928;-79
2022/05/07 11:54:51;;;;;;;17.70;10.75;;;16.70;99.90;;;;;;5049559;28;20438;-78
2022/05/07 11:57:31;;;;;;;26.08;11.32;;;16.80;99.90;;;;;;5055579;28;20044;-78
2022/05/07 11:59:57;;;;;;;14.30;11.80;;;17.30;99.90;;;;;;5068465;28;20072;-80
2022/05/07 12:02:23;;;;;;;15.05;12.73;;;17.70;99.90;;;;;;5059962;28;20051;-78
2022/05/07 12:05:00;;;;;;;14.50;11.63;;;17.20;99.90;;;;;;5051302;28;20041;-80
2022/05/07 12:07:25;;;;;;;17.65;12.90;;;17.30;99.90;;;;;;5048992;28;20407;-78
2022/05/07 12:09:51;;;;;;;17.48;11.98;;;17.50;99.90;;;;;;5065158;28;20045;-80
2022/05/07 12:12:16;;;;;;;16.10;12.10;;;17.20;99.90;;;;;;5069264;28;20046;-80
2022/05/07 12:14:42;;;;;;;13.27;11.70;;;17.30;99.90;;;;;;5053192;28;20126;-80
2022/05/07 12:19:52;;;;;;;15.05;11.18;;;17.30;99.90;;;;;;5062036;28;20049;-79
2022/05/07 12:30:30;;;;;;;17.40;12.77;;;17.10;99.90;;;;;;5068188;28;20131;-79
2022/05/07 12:32:56;;;;;;;16.05;11.20;;;17.50;99.90;;;;;;5068724;28;20120;-79
2022/05/07 12:35:21;;;;;;;19.10;10.20;;;17.70;99.90;;;;;;5065246;28;20033;-78
2022/05/07 12:37:47;;;;;;;13.75;9.73;;;17.70;99.90;;;;;;5068846;28;20036;-79
2022/05/07 12:40:12;;;;;;;16.10;10.70;;;17.80;99.90;;;;;;5066646;28;20099;-78
2022/05/07 12:42:39;;;;;;;13.02;10.25;;;17.80;99.90;;;;;;5069459;28;20047;-79
2022/05/07 12:45:05;;;;;;;14.05;10.85;;;17.30;99.90;;;;;;5068610;28;20448;-79
2022/05/07 12:47:30;;;;;;;13.68;9.68;;;17.30;99.90;;;;;;5065813;28;20074;-79
2022/05/07 12:49:56;;;;;;;16.92;9.93;;;17.30;99.90;;;;;;5062147;28;20044;-78
2022/05/07 12:52:22;;;;;;;14.32;10.57;;;17.40;99.90;;;;;;5047847;28;20546;-79
2022/05/07 12:54:48;;;;;;;17.38;10.70;;;17.00;99.90;;;;;;5048274;28;20036;-79
2022/05/07 12:57:14;;;;;;;13.55;11.45;;;16.90;99.90;;;;;;5062711;28;20041;-79
2022/05/07 12:59:40;;;;;;;18.60;11.18;;;17.30;99.90;;;;;;5067609;28;20410;-78
2022/05/07 13:02:06;;;;;;;12.98;11.23;;;17.50;99.90;;;;;;5065124;28;20036;-81
2022/05/07 13:04:32;;;;;;;15.88;11.00;;;17.20;99.90;;;;;;5052466;28;20048;-86